sensor_id;sensor_type;location;lat;lon;timestamp;P1;durP1;ratioP1;P2;durP2;ratioP2
50367;SDS011;36281;34.132;-118.018;2023-04-01T00:01:26;9.27;;;4.03;;
50367;SDS011;36281;34.132;-118.018;2023-04-01T00:03:55;7.15;;;4.20;;
50367;SDS011;36281;34.132;-118.018;2023-04-01T00:06:25;7.45;;;3.80;;
50367;SDS011;36281;34.132;-118.018;2023-04-01T00:08:54;6.78;;;3.45;;
50367;SDS011;36281;34.132;-118.018;2023-04-01T00:11:23;5.65;;;3.53;;
50367;SDS011;36281;34.132;-118.018;2023-04-01T00:13:52;5.70;;;3.72;;
50367;SDS011;36281;34.132;-118.018;2023-04-01T00:16:23;6.18;;;3.25;;
50367;SDS011;36281;34.132;-118.018;2023-04-01T00:18:53;5.43;;;3.40;;
50367;SDS011;36281;34.132;-118.018;2023-04-01T00:21:22;5.38;;;3.03;;
50367;SDS011;36281;34.132;-118.018;2023-04-01T00:23:51;5.95;;;3.00;;
50367;SDS011;36281;34.132;-118.018;2023-04-01T00:26:20;6.88;;;2.97;;
50367;SDS011;36281;34.132;-118.018;2023-04-01T00:28:50;4.63;;;2.88;;
50367;SDS011;36281;34.132;-118.018;2023-04-01T00:31:19;5.15;;;3.08;;
50367;SDS011;36281;34.132;-118.018;2023-04-01T00:33:51;5.32;;;2.90;;
50367;SDS011;36281;34.132;-118.018;2023-04-01T00:36:20;4.65;;;3.03;;
50367;SDS011;36281;34.132;-118.018;2023-04-01T00:38:51;3.72;;;2.70;;
50367;SDS011;36281;34.132;-118.018;2023-04-01T00:41:20;4.40;;;3.17;;
50367;SDS011;36281;34.132;-118.018;2023-04-01T00:43:50;4.72;;;2.75;;
50367;SDS011;36281;34.132;-118.018;2023-04-01T00:46:19;5.95;;;2.95;;
50367;SDS011;36281;34.132;-118.018;2023-04-01T00:48:51;5.43;;;2.78;;
50367;SDS011;36281;34.132;-118.018;2023-04-01T00:51:22;4.47;;;2.92;;
50367;SDS011;36281;34.132;-118.018;2023-04-01T00:53:55;4.63;;;2.83;;
50367;SDS011;36281;34.132;-118.018;2023-04-01T00:56:27;6.05;;;2.80;;
50367;SDS011;36281;34.132;-118.018;2023-04-01T00:59:01;6.38;;;3.03;;
50367;SDS011;36281;34.132;-118.018;2023-04-01T01:01:35;5.53;;;2.83;;
50367;SDS011;36281;34.132;-118.018;2023-04-01T01:04:06;5.15;;;3.05;;
50367;SDS011;36281;34.132;-118.018;2023-04-01T01:06:50;3.72;;;3.10;;
50367;SDS011;36281;34.132;-118.018;2023-04-01T01:09:37;4.90;;;3.10;;
50367;SDS011;36281;34.132;-118.018;2023-04-01T01:12:13;5.55;;;3.10;;
50367;SDS011;36281;34.132;-118.018;2023-04-01T01:14:48;5.28;;;3.17;;
50367;SDS011;36281;34.132;-118.018;2023-04-01T01:17:27;6.13;;;3.00;;
50367;SDS011;36281;34.132;-118.018;2023-04-01T01:23:25;4.80;;;3.08;;
50367;SDS011;36281;34.132;-118.018;2023-04-01T01:26:13;4.60;;;2.53;;
50367;SDS011;36281;34.132;-118.018;2023-04-01T01:29:00;4.63;;;2.60;;
50367;SDS011;36281;34.132;-118.018;2023-04-01T01:31:44;3.50;;;2.90;;
50367;SDS011;36281;34.132;-118.018;2023-04-01T01:34:22;3.70;;;2.45;;
50367;SDS011;36281;34.132;-118.018;2023-04-01T01:37:01;4.82;;;2.55;;
50367;SDS011;36281;34.132;-118.018;2023-04-01T01:39:34;4.77;;;2.50;;
50367;SDS011;36281;34.132;-118.018;2023-04-01T01:42:05;5.13;;;2.75;;
50367;SDS011;36281;34.132;-118.018;2023-04-01T01:44:39;3.55;;;2.40;;
50367;SDS011;36281;34.132;-118.018;2023-04-01T01:47:12;5.10;;;2.70;;
50367;SDS011;36281;34.132;-118.018;2023-04-01T01:49:43;5.32;;;2.85;;
50367;SDS011;36281;34.132;-118.018;2023-04-01T01:52:16;5.38;;;2.95;;
50367;SDS011;36281;34.132;-118.018;2023-04-01T01:54:47;4.90;;;2.33;;
50367;SDS011;36281;34.132;-118.018;2023-04-01T01:57:16;4.50;;;2.47;;
50367;SDS011;36281;34.132;-118.018;2023-04-01T01:59:48;7.15;;;2.40;;
50367;SDS011;36281;34.132;-118.018;2023-04-01T02:02:19;4.22;;;2.25;;
50367;SDS011;36281;34.132;-118.018;2023-04-01T02:04:51;3.60;;;2.00;;
50367;SDS011;36281;34.132;-118.018;2023-04-01T02:07:23;3.55;;;2.40;;
50367;SDS011;36281;34.132;-118.018;2023-04-01T02:09:56;5.70;;;2.60;;
50367;SDS011;36281;34.132;-118.018;2023-04-01T02:12:25;5.82;;;2.30;;
50367;SDS011;36281;34.132;-118.018;2023-04-01T02:14:57;4.55;;;2.67;;
50367;SDS011;36281;34.132;-118.018;2023-04-01T02:17:32;2.75;;;2.15;;
50367;SDS011;36281;34.132;-118.018;2023-04-01T02:20:06;3.65;;;2.30;;
50367;SDS011;36281;34.132;-118.018;2023-04-01T02:22:43;3.93;;;2.50;;
50367;SDS011;36281;34.132;-118.018;2023-04-01T02:25:16;4.68;;;2.25;;
50367;SDS011;36281;34.132;-118.018;2023-04-01T02:27:48;5.32;;;2.50;;
50367;SDS011;36281;34.132;-118.018;2023-04-01T02:30:18;5.88;;;2.80;;
50367;SDS011;36281;34.132;-118.018;2023-04-01T02:32:47;5.07;;;2.67;;
50367;SDS011;36281;34.132;-118.018;2023-04-01T02:35:17;4.00;;;2.70;;
50367;SDS011;36281;34.132;-118.018;2023-04-01T02:37:48;3.22;;;2.40;;
50367;SDS011;36281;34.132;-118.018;2023-04-01T02:40:19;5.00;;;2.75;;
50367;SDS011;36281;34.132;-118.018;2023-04-01T02:42:49;5.20;;;2.33;;
50367;SDS011;36281;34.132;-118.018;2023-04-01T02:45:18;3.70;;;2.42;;
50367;SDS011;36281;34.132;-118.018;2023-04-01T02:47:48;5.38;;;2.50;;
50367;SDS011;36281;34.132;-118.018;2023-04-01T02:50:17;4.68;;;2.50;;
50367;SDS011;36281;34.132;-118.018;2023-04-01T02:52:46;5.70;;;2.33;;
50367;SDS011;36281;34.132;-118.018;2023-04-01T02:55:17;5.22;;;2.72;;
50367;SDS011;36281;34.132;-118.018;2023-04-01T02:57:46;4.70;;;2.30;;
50367;SDS011;36281;34.132;-118.018;2023-04-01T03:00:15;4.53;;;2.50;;
50367;SDS011;36281;34.132;-118.018;2023-04-01T03:02:45;6.20;;;2.70;;
50367;SDS011;36281;34.132;-118.018;2023-04-01T03:05:14;3.83;;;2.50;;
50367;SDS011;36281;34.132;-118.018;2023-04-01T03:07:43;6.78;;;2.65;;
50367;SDS011;36281;34.132;-118.018;2023-04-01T03:10:14;5.53;;;3.72;;
50367;SDS011;36281;34.132;-118.018;2023-04-01T03:12:43;5.60;;;3.15;;
50367;SDS011;36281;34.132;-118.018;2023-04-01T03:15:13;6.45;;;2.75;;
50367;SDS011;36281;34.132;-118.018;2023-04-01T03:17:42;5.50;;;3.10;;
50367;SDS011;36281;34.132;-118.018;2023-04-01T03:20:11;4.20;;;2.90;;
50367;SDS011;36281;34.132;-118.018;2023-04-01T03:22:41;4.88;;;2.90;;
50367;SDS011;36281;34.132;-118.018;2023-04-01T03:25:10;5.10;;;3.53;;
50367;SDS011;36281;34.132;-118.018;2023-04-01T03:27:40;5.15;;;3.80;;
50367;SDS011;36281;34.132;-118.018;2023-04-01T03:30:10;5.65;;;3.38;;
50367;SDS011;36281;34.132;-118.018;2023-04-01T03:32:39;7.43;;;3.85;;
50367;SDS011;36281;34.132;-118.018;2023-04-01T03:35:08;9.77;;;4.03;;
50367;SDS011;36281;34.132;-118.018;2023-04-01T03:37:38;6.03;;;3.80;;
50367;SDS011;36281;34.132;-118.018;2023-04-01T03:40:07;6.63;;;3.88;;
50367;SDS011;36281;34.132;-118.018;2023-04-01T03:42:37;6.07;;;4.00;;
50367;SDS011;36281;34.132;-118.018;2023-04-01T03:45:08;5.20;;;3.40;;
50367;SDS011;36281;34.132;-118.018;2023-04-01T03:47:39;6.65;;;3.55;;
50367;SDS011;36281;34.132;-118.018;2023-04-01T03:50:09;4.38;;;2.97;;
50367;SDS011;36281;34.132;-118.018;2023-04-01T03:52:38;4.60;;;2.65;;
50367;SDS011;36281;34.132;-118.018;2023-04-01T03:55:08;4.43;;;2.70;;
50367;SDS011;36281;34.132;-118.018;2023-04-01T03:57:37;3.40;;;2.80;;
50367;SDS011;36281;34.132;-118.018;2023-04-01T04:00:06;4.97;;;2.80;;
50367;SDS011;36281;34.132;-118.018;2023-04-01T04:02:38;4.32;;;2.85;;
50367;SDS011;36281;34.132;-118.018;2023-04-01T04:05:07;6.75;;;3.10;;
50367;SDS011;36281;34.132;-118.018;2023-04-01T04:07:37;6.00;;;3.30;;
50367;SDS011;36281;34.132;-118.018;2023-04-01T04:10:06;6.05;;;3.00;;
50367;SDS011;36281;34.132;-118.018;2023-04-01T04:12:36;5.90;;;3.00;;
50367;SDS011;36281;34.132;-118.018;2023-04-01T04:15:05;7.15;;;3.83;;
50367;SDS011;36281;34.132;-118.018;2023-04-01T04:17:36;6.53;;;4.28;;
50367;SDS011;36281;34.132;-118.018;2023-04-01T04:20:06;7.15;;;3.45;;
50367;SDS011;36281;34.132;-118.018;2023-04-01T04:22:36;5.25;;;3.30;;
50367;SDS011;36281;34.132;-118.018;2023-04-01T04:25:05;5.75;;;3.20;;
50367;SDS011;36281;34.132;-118.018;2023-04-01T04:27:35;6.25;;;3.33;;
50367;SDS011;36281;34.132;-118.018;2023-04-01T04:30:05;6.70;;;3.30;;
50367;SDS011;36281;34.132;-118.018;2023-04-01T04:32:37;5.00;;;3.40;;
50367;SDS011;36281;34.132;-118.018;2023-04-01T04:35:06;6.07;;;3.25;;
50367;SDS011;36281;34.132;-118.018;2023-04-01T04:37:36;6.43;;;3.70;;
50367;SDS011;36281;34.132;-118.018;2023-04-01T04:40:05;6.72;;;3.72;;
50367;SDS011;36281;34.132;-118.018;2023-04-01T04:42:35;4.03;;;3.15;;
50367;SDS011;36281;34.132;-118.018;2023-04-01T04:45:05;5.70;;;2.97;;
50367;SDS011;36281;34.132;-118.018;2023-04-01T04:47:34;6.60;;;3.50;;
50367;SDS011;36281;34.132;-118.018;2023-04-01T04:50:06;7.68;;;3.00;;
50367;SDS011;36281;34.132;-118.018;2023-04-01T04:52:35;5.68;;;3.00;;
50367;SDS011;36281;34.132;-118.018;2023-04-01T04:55:05;5.28;;;3.30;;
50367;SDS011;36281;34.132;-118.018;2023-04-01T04:57:34;8.82;;;3.13;;
50367;SDS011;36281;34.132;-118.018;2023-04-01T05:00:04;5.57;;;3.13;;
50367;SDS011;36281;34.132;-118.018;2023-04-01T05:02:34;5.18;;;2.88;;
50367;SDS011;36281;34.132;-118.018;2023-04-01T05:05:05;5.25;;;2.65;;
50367;SDS011;36281;34.132;-118.018;2023-04-01T05:07:35;7.13;;;3.00;;
50367;SDS011;36281;34.132;-118.018;2023-04-01T05:10:05;3.90;;;2.90;;
50367;SDS011;36281;34.132;-118.018;2023-04-01T05:12:34;11.68;;;3.28;;
50367;SDS011;36281;34.132;-118.018;2023-04-01T05:15:07;7.30;;;3.35;;
50367;SDS011;36281;34.132;-118.018;2023-04-01T05:17:36;4.88;;;3.25;;
50367;SDS011;36281;34.132;-118.018;2023-04-01T05:20:08;6.70;;;3.40;;
50367;SDS011;36281;34.132;-118.018;2023-04-01T05:22:39;4.82;;;3.42;;
50367;SDS011;36281;34.132;-118.018;2023-04-01T05:25:08;5.82;;;3.25;;
50367;SDS011;36281;34.132;-118.018;2023-04-01T05:27:37;8.98;;;3.65;;
50367;SDS011;36281;34.132;-118.018;2023-04-01T05:30:07;5.20;;;3.20;;
50367;SDS011;36281;34.132;-118.018;2023-04-01T05:32:36;6.13;;;3.60;;
50367;SDS011;36281;34.132;-118.018;2023-04-01T05:35:07;7.32;;;3.85;;
50367;SDS011;36281;34.132;-118.018;2023-04-01T05:37:37;7.10;;;4.03;;
50367;SDS011;36281;34.132;-118.018;2023-04-01T05:40:06;8.93;;;4.15;;
50367;SDS011;36281;34.132;-118.018;2023-04-01T05:42:36;8.40;;;3.70;;
50367;SDS011;36281;34.132;-118.018;2023-04-01T05:45:06;7.90;;;3.92;;
50367;SDS011;36281;34.132;-118.018;2023-04-01T05:47:36;7.93;;;4.13;;
50367;SDS011;36281;34.132;-118.018;2023-04-01T05:50:07;7.88;;;5.30;;
50367;SDS011;36281;34.132;-118.018;2023-04-01T05:52:38;11.10;;;4.90;;
50367;SDS011;36281;34.132;-118.018;2023-04-01T05:55:08;8.65;;;5.72;;
50367;SDS011;36281;34.132;-118.018;2023-04-01T05:57:37;9.38;;;5.50;;
50367;SDS011;36281;34.132;-118.018;2023-04-01T06:00:07;10.25;;;5.47;;
50367;SDS011;36281;34.132;-118.018;2023-04-01T06:02:37;6.30;;;4.85;;
50367;SDS011;36281;34.132;-118.018;2023-04-01T06:05:13;7.40;;;5.10;;
50367;SDS011;36281;34.132;-118.018;2023-04-01T06:07:46;10.60;;;5.80;;
50367;SDS011;36281;34.132;-118.018;2023-04-01T06:10:16;9.68;;;6.13;;
50367;SDS011;36281;34.132;-118.018;2023-04-01T06:12:51;10.23;;;6.05;;
50367;SDS011;36281;34.132;-118.018;2023-04-01T06:15:35;8.27;;;6.38;;
50367;SDS011;36281;34.132;-118.018;2023-04-01T06:18:13;9.30;;;6.25;;
50367;SDS011;36281;34.132;-118.018;2023-04-01T06:21:20;10.02;;;5.78;;
50367;SDS011;36281;34.132;-118.018;2023-04-01T06:24:08;12.05;;;6.57;;
50367;SDS011;36281;34.132;-118.018;2023-04-01T06:26:56;9.50;;;6.55;;
50367;SDS011;36281;34.132;-118.018;2023-04-01T06:29:51;9.68;;;5.45;;
50367;SDS011;36281;34.132;-118.018;2023-04-01T06:35:39;5.95;;;4.18;;
50367;SDS011;36281;34.132;-118.018;2023-04-01T06:44:36;9.10;;;4.78;;
50367;SDS011;36281;34.132;-118.018;2023-04-01T06:47:18;7.07;;;4.90;;
50367;SDS011;36281;34.132;-118.018;2023-04-01T06:49:58;8.75;;;5.75;;
50367;SDS011;36281;34.132;-118.018;2023-04-01T06:52:35;10.32;;;6.10;;
50367;SDS011;36281;34.132;-118.018;2023-04-01T06:55:21;8.20;;;6.22;;
50367;SDS011;36281;34.132;-118.018;2023-04-01T06:57:55;12.55;;;5.90;;
50367;SDS011;36281;34.132;-118.018;2023-04-01T07:00:27;7.82;;;5.07;;
50367;SDS011;36281;34.132;-118.018;2023-04-01T07:03:02;8.68;;;5.40;;
50367;SDS011;36281;34.132;-118.018;2023-04-01T07:05:38;7.03;;;4.85;;
50367;SDS011;36281;34.132;-118.018;2023-04-01T07:08:08;9.77;;;5.50;;
50367;SDS011;36281;34.132;-118.018;2023-04-01T07:10:43;5.90;;;4.45;;
50367;SDS011;36281;34.132;-118.018;2023-04-01T07:13:17;6.78;;;4.55;;
50367;SDS011;36281;34.132;-118.018;2023-04-01T07:15:54;10.25;;;5.00;;
50367;SDS011;36281;34.132;-118.018;2023-04-01T07:18:34;11.88;;;5.30;;
50367;SDS011;36281;34.132;-118.018;2023-04-01T07:21:11;6.90;;;4.88;;
50367;SDS011;36281;34.132;-118.018;2023-04-01T07:23:48;8.20;;;4.82;;
50367;SDS011;36281;34.132;-118.018;2023-04-01T07:26:22;7.03;;;5.03;;
50367;SDS011;36281;34.132;-118.018;2023-04-01T07:28:52;7.65;;;4.85;;
50367;SDS011;36281;34.132;-118.018;2023-04-01T07:31:27;8.57;;;5.45;;
50367;SDS011;36281;34.132;-118.018;2023-04-01T07:34:08;8.65;;;5.07;;
50367;SDS011;36281;34.132;-118.018;2023-04-01T07:36:46;10.10;;;5.43;;
50367;SDS011;36281;34.132;-118.018;2023-04-01T07:39:26;8.02;;;4.57;;
50367;SDS011;36281;34.132;-118.018;2023-04-01T07:42:08;8.57;;;5.18;;
50367;SDS011;36281;34.132;-118.018;2023-04-01T07:44:51;6.13;;;4.60;;
50367;SDS011;36281;34.132;-118.018;2023-04-01T07:47:31;8.23;;;4.78;;
50367;SDS011;36281;34.132;-118.018;2023-04-01T07:50:11;9.50;;;4.55;;
50367;SDS011;36281;34.132;-118.018;2023-04-01T07:52:48;11.32;;;5.20;;
50367;SDS011;36281;34.132;-118.018;2023-04-01T07:55:23;7.38;;;4.80;;
50367;SDS011;36281;34.132;-118.018;2023-04-01T07:58:01;7.70;;;5.18;;
50367;SDS011;36281;34.132;-118.018;2023-04-01T08:00:39;10.82;;;4.93;;
50367;SDS011;36281;34.132;-118.018;2023-04-01T08:03:23;7.70;;;5.20;;
50367;SDS011;36281;34.132;-118.018;2023-04-01T08:06:05;9.10;;;5.05;;
50367;SDS011;36281;34.132;-118.018;2023-04-01T08:08:43;7.53;;;5.10;;
50367;SDS011;36281;34.132;-118.018;2023-04-01T08:11:23;8.27;;;5.38;;
50367;SDS011;36281;34.132;-118.018;2023-04-01T08:14:07;7.45;;;4.93;;
50367;SDS011;36281;34.132;-118.018;2023-04-01T08:16:46;7.70;;;4.80;;
50367;SDS011;36281;34.132;-118.018;2023-04-01T08:19:28;9.85;;;5.20;;
50367;SDS011;36281;34.132;-118.018;2023-04-01T08:22:09;8.52;;;5.35;;
50367;SDS011;36281;34.132;-118.018;2023-04-01T08:24:43;8.02;;;5.05;;
50367;SDS011;36281;34.132;-118.018;2023-04-01T08:27:16;8.40;;;5.07;;
50367;SDS011;36281;34.132;-118.018;2023-04-01T08:29:53;6.95;;;5.13;;
50367;SDS011;36281;34.132;-118.018;2023-04-01T08:32:28;7.00;;;5.00;;
50367;SDS011;36281;34.132;-118.018;2023-04-01T08:35:07;7.63;;;4.90;;
50367;SDS011;36281;34.132;-118.018;2023-04-01T08:37:41;10.98;;;5.00;;
50367;SDS011;36281;34.132;-118.018;2023-04-01T08:40:25;8.05;;;4.35;;
50367;SDS011;36281;34.132;-118.018;2023-04-01T08:43:07;8.90;;;5.32;;
50367;SDS011;36281;34.132;-118.018;2023-04-01T08:45:56;6.70;;;4.32;;
50367;SDS011;36281;34.132;-118.018;2023-04-01T08:51:31;6.93;;;4.53;;
50367;SDS011;36281;34.132;-118.018;2023-04-01T08:54:24;7.10;;;4.00;;
50367;SDS011;36281;34.132;-118.018;2023-04-01T08:57:15;5.97;;;3.70;;
50367;SDS011;36281;34.132;-118.018;2023-04-01T08:59:57;4.57;;;3.38;;
50367;SDS011;36281;34.132;-118.018;2023-04-01T09:05:42;5.00;;;3.33;;
50367;SDS011;36281;34.132;-118.018;2023-04-01T09:08:32;6.63;;;3.58;;
50367;SDS011;36281;34.132;-118.018;2023-04-01T09:11:12;5.22;;;3.30;;
50367;SDS011;36281;34.132;-118.018;2023-04-01T09:20:02;6.50;;;2.88;;
50367;SDS011;36281;34.132;-118.018;2023-04-01T09:22:48;3.55;;;3.10;;
50367;SDS011;36281;34.132;-118.018;2023-04-01T09:25:29;4.18;;;3.15;;
50367;SDS011;36281;34.132;-118.018;2023-04-01T09:28:10;5.35;;;3.40;;
50367;SDS011;36281;34.132;-118.018;2023-04-01T09:30:49;6.50;;;3.40;;
50367;SDS011;36281;34.132;-118.018;2023-04-01T09:33:52;4.03;;;3.15;;
50367;SDS011;36281;34.132;-118.018;2023-04-01T09:36:46;4.82;;;3.55;;
50367;SDS011;36281;34.132;-118.018;2023-04-01T09:39:35;6.05;;;3.55;;
50367;SDS011;36281;34.132;-118.018;2023-04-01T09:42:15;7.25;;;3.85;;
50367;SDS011;36281;34.132;-118.018;2023-04-01T09:44:58;4.22;;;3.40;;
50367;SDS011;36281;34.132;-118.018;2023-04-01T09:47:33;5.85;;;3.35;;
50367;SDS011;36281;34.132;-118.018;2023-04-01T09:50:16;4.20;;;3.35;;
50367;SDS011;36281;34.132;-118.018;2023-04-01T09:53:11;5.28;;;3.45;;
50367;SDS011;36281;34.132;-118.018;2023-04-01T09:59:08;5.85;;;4.25;;
50367;SDS011;36281;34.132;-118.018;2023-04-01T10:05:13;4.57;;;3.50;;
50367;SDS011;36281;34.132;-118.018;2023-04-01T10:11:25;5.35;;;3.88;;
50367;SDS011;36281;34.132;-118.018;2023-04-01T10:14:36;5.45;;;3.80;;
50367;SDS011;36281;34.132;-118.018;2023-04-01T10:20:41;6.85;;;3.90;;
50367;SDS011;36281;34.132;-118.018;2023-04-01T10:23:32;6.25;;;3.60;;
50367;SDS011;36281;34.132;-118.018;2023-04-01T10:38:58;5.03;;;4.18;;
50367;SDS011;36281;34.132;-118.018;2023-04-01T10:42:00;5.60;;;3.90;;
50367;SDS011;36281;34.132;-118.018;2023-04-01T10:45:00;6.93;;;3.55;;
50367;SDS011;36281;34.132;-118.018;2023-04-01T10:48:02;4.07;;;3.30;;
50367;SDS011;36281;34.132;-118.018;2023-04-01T10:50:50;7.72;;;3.47;;
50367;SDS011;36281;34.132;-118.018;2023-04-01T10:53:43;5.70;;;3.75;;
50367;SDS011;36281;34.132;-118.018;2023-04-01T11:02:57;4.82;;;3.85;;
50367;SDS011;36281;34.132;-118.018;2023-04-01T11:15:14;4.97;;;3.70;;
50367;SDS011;36281;34.132;-118.018;2023-04-01T11:21:08;4.57;;;3.83;;
50367;SDS011;36281;34.132;-118.018;2023-04-01T11:24:03;4.80;;;3.50;;
50367;SDS011;36281;34.132;-118.018;2023-04-01T11:26:47;4.25;;;3.72;;
50367;SDS011;36281;34.132;-118.018;2023-04-01T11:29:33;4.97;;;3.08;;
50367;SDS011;36281;34.132;-118.018;2023-04-01T11:32:29;7.53;;;3.80;;
50367;SDS011;36281;34.132;-118.018;2023-04-01T11:38:15;7.65;;;3.92;;
50367;SDS011;36281;34.132;-118.018;2023-04-01T11:40:56;7.78;;;3.15;;
50367;SDS011;36281;34.132;-118.018;2023-04-01T11:43:31;6.60;;;3.60;;
50367;SDS011;36281;34.132;-118.018;2023-04-01T11:46:07;4.37;;;2.90;;
50367;SDS011;36281;34.132;-118.018;2023-04-01T11:48:41;4.85;;;3.42;;
50367;SDS011;36281;34.132;-118.018;2023-04-01T11:51:24;5.55;;;3.30;;
50367;SDS011;36281;34.132;-118.018;2023-04-01T11:54:07;4.70;;;3.22;;
50367;SDS011;36281;34.132;-118.018;2023-04-01T11:56:52;6.22;;;3.10;;
50367;SDS011;36281;34.132;-118.018;2023-04-01T11:59:39;4.35;;;3.03;;
50367;SDS011;36281;34.132;-118.018;2023-04-01T12:02:20;3.10;;;2.80;;
50367;SDS011;36281;34.132;-118.018;2023-04-01T12:04:59;4.15;;;3.20;;
50367;SDS011;36281;34.132;-118.018;2023-04-01T12:07:55;5.05;;;3.22;;
50367;SDS011;36281;34.132;-118.018;2023-04-01T12:10:39;5.45;;;3.35;;
50367;SDS011;36281;34.132;-118.018;2023-04-01T12:13:16;4.53;;;2.95;;
50367;SDS011;36281;34.132;-118.018;2023-04-01T12:15:59;3.88;;;3.20;;
50367;SDS011;36281;34.132;-118.018;2023-04-01T12:18:40;4.60;;;3.45;;
50367;SDS011;36281;34.132;-118.018;2023-04-01T12:21:18;3.70;;;3.38;;
50367;SDS011;36281;34.132;-118.018;2023-04-01T12:24:05;4.30;;;3.03;;
50367;SDS011;36281;34.132;-118.018;2023-04-01T12:26:58;3.67;;;3.28;;
50367;SDS011;36281;34.132;-118.018;2023-04-01T12:29:48;4.32;;;3.50;;
50367;SDS011;36281;34.132;-118.018;2023-04-01T12:32:34;7.05;;;3.60;;
50367;SDS011;36281;34.132;-118.018;2023-04-01T12:35:17;5.28;;;3.53;;
50367;SDS011;36281;34.132;-118.018;2023-04-01T12:37:52;4.05;;;3.33;;
50367;SDS011;36281;34.132;-118.018;2023-04-01T12:43:45;5.10;;;3.75;;
50367;SDS011;36281;34.132;-118.018;2023-04-01T12:46:29;6.03;;;3.20;;
50367;SDS011;36281;34.132;-118.018;2023-04-01T12:49:12;5.88;;;3.75;;
50367;SDS011;36281;34.132;-118.018;2023-04-01T12:52:07;4.97;;;3.90;;
50367;SDS011;36281;34.132;-118.018;2023-04-01T12:54:50;3.95;;;3.40;;
50367;SDS011;36281;34.132;-118.018;2023-04-01T12:57:54;6.60;;;3.33;;
50367;SDS011;36281;34.132;-118.018;2023-04-01T13:00:41;4.50;;;3.58;;
50367;SDS011;36281;34.132;-118.018;2023-04-01T13:03:27;4.05;;;3.20;;
50367;SDS011;36281;34.132;-118.018;2023-04-01T13:09:19;4.05;;;3.30;;
50367;SDS011;36281;34.132;-118.018;2023-04-01T13:12:06;5.88;;;3.65;;
50367;SDS011;36281;34.132;-118.018;2023-04-01T13:14:58;5.30;;;3.35;;
50367;SDS011;36281;34.132;-118.018;2023-04-01T13:20:23;6.05;;;3.70;;
50367;SDS011;36281;34.132;-118.018;2023-04-01T13:23:03;4.50;;;3.60;;
50367;SDS011;36281;34.132;-118.018;2023-04-01T13:25:44;5.18;;;3.72;;
50367;SDS011;36281;34.132;-118.018;2023-04-01T13:28:37;6.80;;;3.38;;
50367;SDS011;36281;34.132;-118.018;2023-04-01T13:31:15;4.18;;;3.20;;
50367;SDS011;36281;34.132;-118.018;2023-04-01T13:34:15;4.15;;;3.50;;
50367;SDS011;36281;34.132;-118.018;2023-04-01T13:36:55;6.70;;;4.20;;
50367;SDS011;36281;34.132;-118.018;2023-04-01T13:39:36;6.85;;;4.43;;
50367;SDS011;36281;34.132;-118.018;2023-04-01T13:42:23;7.82;;;4.22;;
50367;SDS011;36281;34.132;-118.018;2023-04-01T13:44:57;4.95;;;3.40;;
50367;SDS011;36281;34.132;-118.018;2023-04-01T13:56:41;6.35;;;3.85;;
50367;SDS011;36281;34.132;-118.018;2023-04-01T14:02:37;7.50;;;3.67;;
50367;SDS011;36281;34.132;-118.018;2023-04-01T14:08:32;5.90;;;4.07;;
50367;SDS011;36281;34.132;-118.018;2023-04-01T14:11:13;8.75;;;4.72;;
50367;SDS011;36281;34.132;-118.018;2023-04-01T14:13:50;7.93;;;4.72;;
50367;SDS011;36281;34.132;-118.018;2023-04-01T14:16:41;7.28;;;4.43;;
50367;SDS011;36281;34.132;-118.018;2023-04-01T14:19:26;7.65;;;4.13;;
50367;SDS011;36281;34.132;-118.018;2023-04-01T14:22:06;7.72;;;4.13;;
50367;SDS011;36281;34.132;-118.018;2023-04-01T14:25:00;6.10;;;3.85;;
50367;SDS011;36281;34.132;-118.018;2023-04-01T14:27:55;7.80;;;4.10;;
50367;SDS011;36281;34.132;-118.018;2023-04-01T14:30:42;5.45;;;3.72;;
50367;SDS011;36281;34.132;-118.018;2023-04-01T14:33:33;6.28;;;3.78;;
50367;SDS011;36281;34.132;-118.018;2023-04-01T14:36:27;5.40;;;3.92;;
50367;SDS011;36281;34.132;-118.018;2023-04-01T14:39:08;6.10;;;4.25;;
50367;SDS011;36281;34.132;-118.018;2023-04-01T14:41:47;6.38;;;4.07;;
50367;SDS011;36281;34.132;-118.018;2023-04-01T14:44:43;6.32;;;4.20;;
50367;SDS011;36281;34.132;-118.018;2023-04-01T14:50:17;6.38;;;3.90;;
50367;SDS011;36281;34.132;-118.018;2023-04-01T14:52:52;6.75;;;4.10;;
50367;SDS011;36281;34.132;-118.018;2023-04-01T14:55:29;8.05;;;4.18;;
50367;SDS011;36281;34.132;-118.018;2023-04-01T14:58:07;5.63;;;4.00;;
50367;SDS011;36281;34.132;-118.018;2023-04-01T15:00:44;4.50;;;3.50;;
50367;SDS011;36281;34.132;-118.018;2023-04-01T15:03:19;4.70;;;3.30;;
50367;SDS011;36281;34.132;-118.018;2023-04-01T15:06:00;4.35;;;3.30;;
50367;SDS011;36281;34.132;-118.018;2023-04-01T15:08:51;5.47;;;3.35;;
50367;SDS011;36281;34.132;-118.018;2023-04-01T15:11:33;5.80;;;3.38;;
50367;SDS011;36281;34.132;-118.018;2023-04-01T15:14:21;3.35;;;2.70;;
50367;SDS011;36281;34.132;-118.018;2023-04-01T15:17:15;3.22;;;2.60;;
50367;SDS011;36281;34.132;-118.018;2023-04-01T15:20:10;4.03;;;3.00;;
50367;SDS011;36281;34.132;-118.018;2023-04-01T15:23:00;4.57;;;2.80;;
50367;SDS011;36281;34.132;-118.018;2023-04-01T15:25:43;3.25;;;2.60;;
50367;SDS011;36281;34.132;-118.018;2023-04-01T15:28:22;2.95;;;2.17;;
50367;SDS011;36281;34.132;-118.018;2023-04-01T15:31:00;5.22;;;2.60;;
50367;SDS011;36281;34.132;-118.018;2023-04-01T15:33:39;4.47;;;2.50;;
50367;SDS011;36281;34.132;-118.018;2023-04-01T15:36:21;3.75;;;2.13;;
50367;SDS011;36281;34.132;-118.018;2023-04-01T15:39:09;4.32;;;2.60;;
50367;SDS011;36281;34.132;-118.018;2023-04-01T15:41:45;3.72;;;2.20;;
50367;SDS011;36281;34.132;-118.018;2023-04-01T15:44:35;3.67;;;2.22;;
50367;SDS011;36281;34.132;-118.018;2023-04-01T15:53:24;3.20;;;1.90;;
50367;SDS011;36281;34.132;-118.018;2023-04-01T15:56:26;3.17;;;2.10;;
50367;SDS011;36281;34.132;-118.018;2023-04-01T15:59:11;4.63;;;2.10;;
50367;SDS011;36281;34.132;-118.018;2023-04-01T16:01:51;2.97;;;2.00;;
50367;SDS011;36281;34.132;-118.018;2023-04-01T16:04:41;4.63;;;2.20;;
50367;SDS011;36281;34.132;-118.018;2023-04-01T16:07:26;2.80;;;2.45;;
50367;SDS011;36281;34.132;-118.018;2023-04-01T16:10:28;3.08;;;2.40;;
50367;SDS011;36281;34.132;-118.018;2023-04-01T16:16:00;4.30;;;2.38;;
50367;SDS011;36281;34.132;-118.018;2023-04-01T16:21:52;3.08;;;2.28;;
50367;SDS011;36281;34.132;-118.018;2023-04-01T16:24:31;5.40;;;2.65;;
50367;SDS011;36281;34.132;-118.018;2023-04-01T16:27:04;3.38;;;2.05;;
50367;SDS011;36281;34.132;-118.018;2023-04-01T16:29:42;4.35;;;2.53;;
50367;SDS011;36281;34.132;-118.018;2023-04-01T16:32:21;3.78;;;2.45;;
50367;SDS011;36281;34.132;-118.018;2023-04-01T16:38:05;3.40;;;2.40;;
50367;SDS011;36281;34.132;-118.018;2023-04-01T16:40:43;3.67;;;2.47;;
50367;SDS011;36281;34.132;-118.018;2023-04-01T16:43:20;3.75;;;2.45;;
50367;SDS011;36281;34.132;-118.018;2023-04-01T16:46:08;3.58;;;2.40;;
50367;SDS011;36281;34.132;-118.018;2023-04-01T16:49:02;4.40;;;2.22;;
50367;SDS011;36281;34.132;-118.018;2023-04-01T16:54:16;2.53;;;2.10;;
50367;SDS011;36281;34.132;-118.018;2023-04-01T16:56:55;3.05;;;2.20;;
50367;SDS011;36281;34.132;-118.018;2023-04-01T16:59:34;3.13;;;2.53;;
50367;SDS011;36281;34.132;-118.018;2023-04-01T17:02:07;3.13;;;2.20;;
50367;SDS011;36281;34.132;-118.018;2023-04-01T17:04:43;3.15;;;2.13;;
50367;SDS011;36281;34.132;-118.018;2023-04-01T17:07:21;5.28;;;2.50;;
50367;SDS011;36281;34.132;-118.018;2023-04-01T17:10:08;4.07;;;2.25;;